createdAt,value
2024-02-03T00:02:00.571Z,21.88
2024-02-03T00:04:31.642Z,31.83
2024-02-03T00:07:05.013Z,28.77
2024-02-03T00:09:36.186Z,34.05
2024-02-03T00:12:11.915Z,24.63
2024-02-03T00:14:42.848Z,29.42
2024-02-03T00:17:13.172Z,31.20
2024-02-03T00:19:43.936Z,30.83
2024-02-03T00:22:16.820Z,31.08
2024-02-03T00:24:47.488Z,29.08
2024-02-03T00:27:18.290Z,29.27
2024-02-03T00:29:49.237Z,25.48
2024-02-03T00:32:19.982Z,26.20
2024-02-03T00:34:50.625Z,29.90
2024-02-03T00:37:24.010Z,32.78
2024-02-03T00:39:54.256Z,31.30
2024-02-03T00:42:24.884Z,29.80
2024-02-03T00:44:55.339Z,32.75
2024-02-03T00:47:25.652Z,31.17
2024-02-03T00:49:59.100Z,27.10
2024-02-03T00:52:33.704Z,29.98
2024-02-03T00:55:05.691Z,30.58
2024-02-03T00:57:35.725Z,29.55
2024-02-03T01:00:08.197Z,29.92
2024-02-03T01:02:38.352Z,32.15
2024-02-03T01:05:09.172Z,32.15
2024-02-03T01:07:41.831Z,29.10
2024-02-03T01:10:13.548Z,31.73
2024-02-03T01:12:44.301Z,30.77
2024-02-03T01:15:14.776Z,28.27
2024-02-03T01:17:45.380Z,32.72
2024-02-03T01:20:16.992Z,32.78
2024-02-03T01:22:49.712Z,34.47
2024-02-03T01:25:20.385Z,32.63
2024-02-03T01:27:51.251Z,32.45
2024-02-03T01:30:22.459Z,33.22
2024-02-03T01:32:52.882Z,30.85
2024-02-03T01:35:24.193Z,27.50
2024-02-03T01:37:57.790Z,29.38
2024-02-03T01:40:28.228Z,27.70
2024-02-03T01:43:01.992Z,29.38
2024-02-03T01:45:41.603Z,25.80
2024-02-03T01:48:14.924Z,27.27
2024-02-03T01:50:50.213Z,23.60
2024-02-03T01:53:24.248Z,30.58
2024-02-03T01:55:57.343Z,27.70
2024-02-03T01:58:27.744Z,28.67
2024-02-03T02:00:59.582Z,34.42
2024-02-03T02:03:30.252Z,27.40
2024-02-03T02:06:00.542Z,25.52
2024-02-03T02:08:41.933Z,31.23
2024-02-03T02:11:13.960Z,28.67
2024-02-03T02:16:14.941Z,20.50
2024-02-03T02:18:45.823Z,24.58
2024-02-03T02:21:20.499Z,24.55
2024-02-03T02:23:52.413Z,24.48
2024-02-03T02:26:22.655Z,25.40
2024-02-03T02:28:53.112Z,27.38
2024-02-03T02:31:23.275Z,25.13
2024-02-03T02:33:56.200Z,23.30
2024-02-03T02:36:30.264Z,24.48
2024-02-03T02:39:00.878Z,26.25
2024-02-03T02:41:34.396Z,21.17
2024-02-03T02:44:04.350Z,27.88
2024-02-03T02:46:34.533Z,24.15
2024-02-03T02:49:09.519Z,29.20
2024-02-03T02:51:42.513Z,26.58
2024-02-03T02:54:13.029Z,27.67
2024-02-03T02:56:43.285Z,28.40
2024-02-03T02:59:13.893Z,26.08
2024-02-03T03:01:44.525Z,30.60
2024-02-03T03:04:15.301Z,29.55
2024-02-03T03:06:48.320Z,32.88
2024-02-03T03:09:18.317Z,28.98
2024-02-03T03:11:48.456Z,28.20
2024-02-03T03:14:21.586Z,30.58
2024-02-03T03:16:52.584Z,25.55
2024-02-03T03:19:22.741Z,31.83
2024-02-03T03:21:55.727Z,35.78
2024-02-03T03:24:25.602Z,28.95
2024-02-03T03:26:55.982Z,28.20
2024-02-03T03:29:25.981Z,21.67
2024-02-03T03:31:56.283Z,25.33
2024-02-03T03:34:26.454Z,22.05
2024-02-03T03:36:59.602Z,26.67
2024-02-03T03:39:29.861Z,25.48
2024-02-03T03:41:59.960Z,23.33
2024-02-03T03:44:33.050Z,21.90
2024-02-03T03:47:00.815Z,22.80
2024-02-03T03:49:34.233Z,20.55
2024-02-03T03:52:08.037Z,21.70
2024-02-03T03:54:38.312Z,21.48
2024-02-03T03:57:08.337Z,24.20
2024-02-03T03:59:38.563Z,22.67
2024-02-03T04:02:09.308Z,25.58
2024-02-03T04:04:41.312Z,23.77
2024-02-03T04:07:13.894Z,27.00
2024-02-03T04:09:50.237Z,18.90
2024-02-03T04:12:20.668Z,22.15
2024-02-03T04:14:53.293Z,21.90
2024-02-03T04:17:23.882Z,16.52
2024-02-03T04:19:54.028Z,17.73
2024-02-03T04:22:27.410Z,20.27
2024-02-03T04:24:58.257Z,14.80
2024-02-03T04:27:28.458Z,13.65
2024-02-03T04:29:58.502Z,13.00
2024-02-03T04:32:28.598Z,13.43
2024-02-03T04:34:58.506Z,16.00
2024-02-03T04:37:31.908Z,13.52
2024-02-03T04:40:05.097Z,13.43
2024-02-03T04:45:06.382Z,10.90
2024-02-03T04:47:37.536Z,16.55
2024-02-03T04:50:08.808Z,12.77
2024-02-03T04:52:42.379Z,12.05
2024-02-03T04:55:12.552Z,11.52
2024-02-03T04:57:42.634Z,11.35
2024-02-03T05:00:14.654Z,12.07
2024-02-03T05:05:14.901Z,10.70
2024-02-03T05:07:47.810Z,11.27
2024-02-03T05:10:17.908Z,10.00
2024-02-03T05:12:47.892Z,11.65
2024-02-03T05:15:20.063Z,11.77
2024-02-03T05:17:50.466Z,10.25
2024-02-03T05:20:20.892Z,11.45
2024-02-03T05:22:54.929Z,13.25
2024-02-03T05:25:24.968Z,12.85
2024-02-03T05:27:55.103Z,12.50
2024-02-03T05:30:25.585Z,11.13
2024-02-03T05:32:55.734Z,14.13
2024-02-03T05:35:25.691Z,9.10
2024-02-03T05:37:58.300Z,13.25
2024-02-03T05:40:28.764Z,11.52
2024-02-03T05:42:59.832Z,13.23
2024-02-03T05:45:30.116Z,10.80
2024-02-03T05:48:00.320Z,10.02
2024-02-03T05:50:30.286Z,10.60
2024-02-03T05:53:04.579Z,9.48
2024-02-03T05:55:35.583Z,14.00
2024-02-03T05:58:05.738Z,9.27
2024-02-03T06:00:35.813Z,9.38
2024-02-03T06:03:05.839Z,7.88
2024-02-03T06:05:41.602Z,8.35
2024-02-03T06:08:21.393Z,7.05
2024-02-03T06:10:53.423Z,6.65
2024-02-03T06:13:24.255Z,6.20
2024-02-03T06:15:54.733Z,6.38
2024-02-03T06:18:25.058Z,5.88
2024-02-03T06:20:56.335Z,6.28
2024-02-03T06:23:28.923Z,5.50
2024-02-03T06:25:58.913Z,6.22
2024-02-03T06:28:31.674Z,5.78
2024-02-03T06:31:01.843Z,5.25
2024-02-03T06:33:31.975Z,4.53
2024-02-03T06:36:02.638Z,4.70
2024-02-03T06:38:36.970Z,4.50
2024-02-03T06:41:07.187Z,5.63
2024-02-03T06:43:41.684Z,5.32
2024-02-03T06:46:11.647Z,5.55
2024-02-03T06:48:41.593Z,4.97
2024-02-03T06:51:12.242Z,4.80
2024-02-03T06:53:44.963Z,5.68
2024-02-03T06:56:15.046Z,5.88
2024-02-03T06:58:45.094Z,5.85
2024-02-03T07:01:15.468Z,5.13
2024-02-03T07:03:45.998Z,5.15
2024-02-03T07:06:16.188Z,5.93
2024-02-03T07:08:50.231Z,6.55
2024-02-03T07:11:20.353Z,6.93
2024-02-03T07:13:51.076Z,5.95
2024-02-03T07:16:21.218Z,7.28
2024-02-03T07:18:51.191Z,5.90
2024-02-03T07:21:21.597Z,6.68
2024-02-03T07:23:54.559Z,6.10
2024-02-03T07:26:24.727Z,5.20
2024-02-03T07:28:55.246Z,5.15
2024-02-03T07:31:33.330Z,5.63
2024-02-03T07:34:03.911Z,4.93
2024-02-03T07:36:38.579Z,5.40
2024-02-03T07:39:11.344Z,4.25
2024-02-03T07:41:41.556Z,4.68
2024-02-03T07:44:11.707Z,4.90
2024-02-03T07:46:42.478Z,5.03
2024-02-03T07:49:12.854Z,4.93
2024-02-03T07:51:43.542Z,5.03
2024-02-03T07:54:16.294Z,5.32
2024-02-03T07:56:46.468Z,5.40
2024-02-03T07:59:16.623Z,6.07
2024-02-03T08:01:48.340Z,5.90
2024-02-03T08:04:18.537Z,5.93
2024-02-03T08:06:48.782Z,5.80
2024-02-03T08:09:21.535Z,6.32
2024-02-03T08:11:52.502Z,5.75
2024-02-03T08:14:22.505Z,8.05
2024-02-03T08:16:52.653Z,6.60
2024-02-03T08:19:23.214Z,5.05
2024-02-03T08:21:53.737Z,5.88
2024-02-03T08:24:26.678Z,6.22
2024-02-03T08:26:57.467Z,5.78
2024-02-03T08:29:27.482Z,5.40
2024-02-03T08:32:09.234Z,6.72
2024-02-03T08:34:39.310Z,4.45
2024-02-03T08:37:09.215Z,5.90
2024-02-03T08:42:11.722Z,7.30
2024-02-03T08:44:41.543Z,4.55
2024-02-03T08:47:13.922Z,4.40
2024-02-03T08:49:53.952Z,6.18
2024-02-03T08:52:24.044Z,4.20
2024-02-03T08:54:54.165Z,4.38
2024-02-03T08:57:24.109Z,3.20
2024-02-03T08:59:54.409Z,3.53
2024-02-03T09:02:26.903Z,4.07
2024-02-03T09:04:56.700Z,3.22
2024-02-03T09:07:26.505Z,4.00
2024-02-03T09:09:57.823Z,3.55
2024-02-03T09:14:58.609Z,3.47
2024-02-03T09:17:31.342Z,5.78
2024-02-03T09:20:01.305Z,3.65
2024-02-03T09:22:31.177Z,4.53
2024-02-03T09:25:01.222Z,4.28
2024-02-03T09:27:31.414Z,3.50
2024-02-03T09:30:01.330Z,3.55
2024-02-03T09:32:33.789Z,5.10
2024-02-03T09:35:04.208Z,3.80
2024-02-03T09:40:09.016Z,4.47
2024-02-03T09:42:40.156Z,4.18
2024-02-03T09:45:10.879Z,5.07
2024-02-03T09:47:43.967Z,6.40
2024-02-03T09:50:14.236Z,5.40
2024-02-03T09:52:46.428Z,5.50
2024-02-03T09:55:17.596Z,4.72
2024-02-03T09:57:50.487Z,5.75
2024-02-03T10:00:22.480Z,5.15
2024-02-03T10:02:54.905Z,5.88
2024-02-03T10:05:32.001Z,5.30
2024-02-03T10:08:07.526Z,6.85
2024-02-03T10:13:13.366Z,6.20
2024-02-03T10:15:43.684Z,5.45
2024-02-03T10:18:17.070Z,3.95
2024-02-03T10:20:47.310Z,4.15
2024-02-03T10:23:17.512Z,3.80
2024-02-03T10:25:48.994Z,3.08
2024-02-03T10:28:19.590Z,3.20
2024-02-03T10:30:50.227Z,2.95
2024-02-03T10:33:22.753Z,4.88
2024-02-03T10:35:53.373Z,4.05
2024-02-03T10:38:23.187Z,3.72
2024-02-03T10:40:53.398Z,3.05
2024-02-03T10:43:24.809Z,2.95
2024-02-03T10:45:56.775Z,2.58
2024-02-03T10:48:30.158Z,2.47
2024-02-03T10:51:05.810Z,2.53
2024-02-03T10:53:38.810Z,3.22
2024-02-03T10:56:13.184Z,3.83
2024-02-03T10:58:43.739Z,3.85
2024-02-03T11:01:19.239Z,4.82
2024-02-03T11:03:54.128Z,3.45
2024-02-03T11:06:28.062Z,4.22
2024-02-03T11:09:13.740Z,4.68
2024-02-03T11:11:44.854Z,4.20
2024-02-03T11:14:16.586Z,5.22
2024-02-03T11:16:46.897Z,4.80
2024-02-03T11:19:19.520Z,5.57
2024-02-03T11:21:49.614Z,6.32
2024-02-03T11:24:19.418Z,5.15
2024-02-03T11:26:58.368Z,6.43
2024-02-03T11:29:28.846Z,5.57
2024-02-03T11:32:02.437Z,8.35
2024-02-03T11:34:37.149Z,7.35
2024-02-03T11:37:10.422Z,6.03
2024-02-03T11:39:41.931Z,9.23
2024-02-03T11:42:12.817Z,9.70
2024-02-03T11:44:54.654Z,9.18
2024-02-03T11:47:25.660Z,9.55
2024-02-03T11:49:58.503Z,7.93
2024-02-03T11:52:28.763Z,8.27
2024-02-03T11:54:58.565Z,9.63
2024-02-03T11:57:28.936Z,8.65
2024-02-03T12:00:03.823Z,9.05
2024-02-03T12:02:35.295Z,10.95
2024-02-03T12:05:13.117Z,9.13
2024-02-03T12:07:45.417Z,10.77
2024-02-03T12:10:17.077Z,9.77
2024-02-03T12:12:47.197Z,12.48
2024-02-03T12:15:17.576Z,12.40
2024-02-03T12:17:50.324Z,9.45
2024-02-03T12:20:32.162Z,12.80
2024-02-03T12:23:02.269Z,9.68
2024-02-03T12:25:32.439Z,17.38
2024-02-03T12:28:03.018Z,10.15
2024-02-03T12:30:37.269Z,10.05
2024-02-03T12:33:08.625Z,13.60
2024-02-03T12:35:41.581Z,11.27
2024-02-03T12:38:12.054Z,11.35
2024-02-03T12:40:41.879Z,9.23
2024-02-03T12:43:11.750Z,9.65
2024-02-03T12:45:41.808Z,11.63
2024-02-03T12:48:11.854Z,10.73
2024-02-03T12:50:44.942Z,11.32
2024-02-03T12:53:15.594Z,15.65
2024-02-03T12:55:46.873Z,11.55
2024-02-03T12:58:17.976Z,10.70
2024-02-03T13:00:48.168Z,10.38
2024-02-03T13:03:18.161Z,10.85
2024-02-03T13:05:50.844Z,13.63
2024-02-03T13:08:21.203Z,11.95
2024-02-03T13:10:51.063Z,12.32
2024-02-03T13:13:20.837Z,8.82
2024-02-03T13:15:50.845Z,9.80
2024-02-03T13:18:20.759Z,7.10
2024-02-03T13:20:53.709Z,6.72
2024-02-03T13:23:23.593Z,9.00
2024-02-03T13:25:53.421Z,8.13
2024-02-03T13:28:23.221Z,9.77
2024-02-03T13:30:53.162Z,9.00
2024-02-03T13:33:23.071Z,8.88
2024-02-03T13:35:56.384Z,10.45
2024-02-03T13:38:26.489Z,6.70
2024-02-03T13:40:56.492Z,6.47
2024-02-03T13:43:26.270Z,6.70
2024-02-03T13:45:56.099Z,8.18
2024-02-03T13:48:26.464Z,6.00
2024-02-03T13:50:59.661Z,8.27
2024-02-03T13:53:29.695Z,6.78
2024-02-03T13:56:01.365Z,7.40
2024-02-03T13:58:31.171Z,7.07
2024-02-03T14:01:01.288Z,7.82
2024-02-03T14:03:31.824Z,7.72
2024-02-03T14:06:04.424Z,7.95
2024-02-03T14:08:34.537Z,10.80
2024-02-03T14:11:04.291Z,9.85
2024-02-03T14:13:34.310Z,7.32
2024-02-03T14:16:04.378Z,6.70
2024-02-03T14:18:34.487Z,7.22
2024-02-03T14:21:07.158Z,6.90
2024-02-03T14:23:37.280Z,7.50
2024-02-03T14:26:07.766Z,7.70
2024-02-03T14:28:37.594Z,8.80
2024-02-03T14:31:07.982Z,12.55
2024-02-03T14:33:38.154Z,12.57
2024-02-03T14:36:11.152Z,8.80
2024-02-03T14:38:42.748Z,13.25
2024-02-03T14:41:12.710Z,10.02
2024-02-03T14:43:43.600Z,11.60
2024-02-03T14:46:13.417Z,9.48
2024-02-03T14:48:43.396Z,10.73
2024-02-03T14:51:16.085Z,12.38
2024-02-03T14:53:45.885Z,10.63
2024-02-03T14:56:15.746Z,12.23
2024-02-03T14:58:45.544Z,11.88
2024-02-03T15:01:15.492Z,9.50
2024-02-03T15:03:45.592Z,10.50
2024-02-03T15:06:18.397Z,13.40
2024-02-03T15:08:48.490Z,10.02
2024-02-03T15:11:18.640Z,9.85
2024-02-03T15:13:48.426Z,9.10
2024-02-03T15:16:18.297Z,9.35
2024-02-03T15:18:48.349Z,10.48
2024-02-03T15:21:20.953Z,13.43
2024-02-03T15:23:50.798Z,11.52
2024-02-03T15:26:21.420Z,11.32
2024-02-03T15:28:51.327Z,11.18
2024-02-03T15:31:21.343Z,13.05
2024-02-03T15:33:51.368Z,10.20
2024-02-03T15:36:24.420Z,9.45
2024-02-03T15:38:54.340Z,11.20
2024-02-03T15:41:24.228Z,14.73
2024-02-03T15:43:54.121Z,13.13
2024-02-03T15:46:33.551Z,11.88
2024-02-03T15:49:10.053Z,14.27
2024-02-03T15:51:42.892Z,19.08
2024-02-03T15:54:12.944Z,12.68
2024-02-03T15:56:43.312Z,16.38
2024-02-03T15:59:15.267Z,13.52
2024-02-03T16:01:45.325Z,16.60
2024-02-03T16:04:15.427Z,17.88
2024-02-03T16:06:48.038Z,14.25
2024-02-03T16:09:18.083Z,12.77
2024-02-03T16:11:48.629Z,13.98
2024-02-03T16:14:18.801Z,15.98
2024-02-03T16:16:48.997Z,14.15
2024-02-03T16:19:19.433Z,27.00
2024-02-03T16:21:52.062Z,31.90
2024-02-03T16:24:21.978Z,28.30
2024-02-03T16:26:52.234Z,15.77
2024-02-03T16:29:22.291Z,23.17
2024-02-03T16:31:52.094Z,25.05
2024-02-03T16:34:23.187Z,20.50
2024-02-03T16:36:55.835Z,26.63
2024-02-03T16:39:27.453Z,18.80
2024-02-03T16:44:27.400Z,14.30
2024-02-03T16:46:57.234Z,16.60
2024-02-03T16:49:27.265Z,15.90
2024-02-03T16:52:00.909Z,19.80
2024-02-03T16:54:31.001Z,17.25
2024-02-03T16:57:00.782Z,14.70
2024-02-03T16:59:30.723Z,12.90
2024-02-03T17:02:00.687Z,11.43
2024-02-03T17:04:30.709Z,12.45
2024-02-03T17:07:03.202Z,11.85
2024-02-03T17:09:34.026Z,13.07
2024-02-03T17:12:04.002Z,14.88
2024-02-03T17:14:34.394Z,11.00
2024-02-03T17:17:04.189Z,11.80
2024-02-03T17:19:34.193Z,13.05
2024-02-03T17:22:07.153Z,14.02
2024-02-03T17:24:37.109Z,11.88
2024-02-03T17:27:07.433Z,11.95
2024-02-03T17:29:37.191Z,19.85
2024-02-03T17:32:07.677Z,13.13
2024-02-03T17:34:39.267Z,10.57
2024-02-03T17:37:11.936Z,11.20
2024-02-03T17:39:41.828Z,11.90
2024-02-03T17:42:11.670Z,10.05
2024-02-03T17:44:41.629Z,11.10
2024-02-03T17:47:12.127Z,8.40
2024-02-03T17:49:42.253Z,9.55
2024-02-03T17:52:14.759Z,9.20
2024-02-03T17:54:48.213Z,9.40
2024-02-03T17:57:18.415Z,8.43
2024-02-03T17:59:48.407Z,10.20
2024-02-03T18:02:19.974Z,10.27
2024-02-03T18:04:49.919Z,10.20
2024-02-03T18:07:22.801Z,12.70
2024-02-03T18:09:53.245Z,9.70
2024-02-03T18:12:23.150Z,9.88
2024-02-03T18:14:53.030Z,17.30
2024-02-03T18:17:22.941Z,14.25
2024-02-03T18:19:52.890Z,9.30
2024-02-03T18:22:25.510Z,8.63
2024-02-03T18:24:55.469Z,18.27
2024-02-03T18:27:25.609Z,10.20
2024-02-03T18:29:55.534Z,9.65
2024-02-03T18:32:25.627Z,12.10
2024-02-03T18:34:55.428Z,8.43
2024-02-03T18:37:27.862Z,8.68
2024-02-03T18:39:57.944Z,8.32
2024-02-03T18:42:27.757Z,9.77
2024-02-03T18:44:58.046Z,8.88
2024-02-03T18:47:27.913Z,10.38
2024-02-03T18:49:57.806Z,12.75
2024-02-03T18:52:31.158Z,9.93
2024-02-03T18:55:01.133Z,13.35
2024-02-03T18:57:31.687Z,9.38
2024-02-03T19:00:01.472Z,10.73
2024-02-03T19:02:31.489Z,12.70
2024-02-03T19:05:02.044Z,9.98
2024-02-03T19:07:34.780Z,8.23
2024-02-03T19:10:04.997Z,11.45
2024-02-03T19:12:34.952Z,9.25
2024-02-03T19:15:06.045Z,14.60
2024-02-03T19:17:39.598Z,9.82
2024-02-03T19:20:12.523Z,11.45
2024-02-03T19:22:44.982Z,10.52
2024-02-03T19:25:15.037Z,13.80
2024-02-03T19:27:45.111Z,8.82
2024-02-03T19:30:17.130Z,9.30
2024-02-03T19:32:48.035Z,10.25
2024-02-03T19:35:18.656Z,9.43
2024-02-03T19:37:51.064Z,9.95
2024-02-03T19:40:21.740Z,10.45
2024-02-03T19:42:51.614Z,11.07
2024-02-03T19:45:21.663Z,8.32
2024-02-03T19:47:51.532Z,15.93
2024-02-03T19:50:24.733Z,9.75
2024-02-03T19:52:59.124Z,14.38
2024-02-03T19:55:29.139Z,14.30
2024-02-03T19:57:59.144Z,10.23
2024-02-03T20:00:29.469Z,19.25
2024-02-03T20:02:59.265Z,10.77
2024-02-03T20:05:29.164Z,11.35
2024-02-03T20:08:02.202Z,12.38
2024-02-03T20:10:33.787Z,13.60
2024-02-03T20:13:05.044Z,11.77
2024-02-03T20:15:34.968Z,10.13
2024-02-03T20:18:05.122Z,15.77
2024-02-03T20:20:35.425Z,14.38
2024-02-03T20:23:07.916Z,15.90
2024-02-03T20:25:38.704Z,11.60
2024-02-03T20:28:09.084Z,10.52
2024-02-03T20:30:39.137Z,9.73
2024-02-03T20:33:09.130Z,8.82
2024-02-03T20:35:39.173Z,9.13
2024-02-03T20:38:12.153Z,6.60
2024-02-03T20:40:45.510Z,5.93
2024-02-03T20:43:19.147Z,8.65
2024-02-03T20:45:51.893Z,7.28
2024-02-03T20:48:22.301Z,6.57
2024-02-03T20:50:52.495Z,8.65
2024-02-03T20:53:25.235Z,8.70
2024-02-03T20:55:55.515Z,9.43
2024-02-03T20:58:25.532Z,7.28
2024-02-03T21:00:55.545Z,5.72
2024-02-03T21:03:25.961Z,7.35
2024-02-03T21:05:56.170Z,6.55
2024-02-03T21:08:28.799Z,6.82
2024-02-03T21:10:58.963Z,8.30
2024-02-03T21:13:29.671Z,6.47
2024-02-03T21:15:59.600Z,4.82
2024-02-03T21:18:29.690Z,5.05
2024-02-03T21:20:59.740Z,8.18
2024-02-03T21:23:32.289Z,5.50
2024-02-03T21:26:02.083Z,4.72
2024-02-03T21:28:31.891Z,6.40
2024-02-03T21:31:01.842Z,4.00
2024-02-03T21:33:31.734Z,5.50
2024-02-03T21:36:01.696Z,4.78
2024-02-03T21:38:34.435Z,6.10
2024-02-03T21:41:04.480Z,3.92
2024-02-03T21:43:34.336Z,7.68
2024-02-03T21:46:04.765Z,4.13
2024-02-03T21:48:36.165Z,4.80
2024-02-03T21:51:06.153Z,6.82
2024-02-03T21:53:38.580Z,6.03
2024-02-03T21:56:08.986Z,5.03
2024-02-03T21:58:38.924Z,7.80
2024-02-03T22:01:08.900Z,3.20
2024-02-03T22:03:39.280Z,5.43
2024-02-03T22:06:10.320Z,4.97
2024-02-03T22:08:42.710Z,5.07
2024-02-03T22:11:12.856Z,4.22
2024-02-03T22:13:42.943Z,7.43
2024-02-03T22:16:12.910Z,8.15
2024-02-03T22:18:42.760Z,5.50
2024-02-03T22:21:12.660Z,5.82
2024-02-03T22:23:45.514Z,5.80
2024-02-03T22:26:15.461Z,3.58
2024-02-03T22:28:45.352Z,3.95
2024-02-03T22:31:15.108Z,4.45
2024-02-03T22:33:44.995Z,5.05
2024-02-03T22:36:15.134Z,7.13
2024-02-03T22:38:47.527Z,6.00
2024-02-03T22:41:17.473Z,8.60
2024-02-03T22:43:47.324Z,5.57
2024-02-03T22:46:17.919Z,6.60
2024-02-03T22:48:48.065Z,5.40
2024-02-03T22:51:18.014Z,7.15
2024-02-03T22:53:50.422Z,5.53
2024-02-03T22:56:20.252Z,7.65
2024-02-03T22:58:50.186Z,5.25
2024-02-03T23:01:20.095Z,6.93
2024-02-03T23:03:50.150Z,7.50
2024-02-03T23:06:20.037Z,8.45
2024-02-03T23:08:53.639Z,5.65
2024-02-03T23:11:23.892Z,8.93
2024-02-03T23:13:53.690Z,5.65
2024-02-03T23:16:23.600Z,5.45
2024-02-03T23:18:53.514Z,7.53
2024-02-03T23:21:24.381Z,5.72
2024-02-03T23:23:56.994Z,5.25
2024-02-03T23:26:27.081Z,9.05
2024-02-03T23:28:57.248Z,9.68
2024-02-03T23:31:28.117Z,10.20
2024-02-03T23:33:59.324Z,10.63
2024-02-03T23:36:30.003Z,12.57
2024-02-03T23:39:03.447Z,7.43
2024-02-03T23:41:33.247Z,8.35
2024-02-03T23:44:04.936Z,13.05
2024-02-03T23:46:35.577Z,10.20
2024-02-03T23:49:06.537Z,13.23
2024-02-03T23:51:36.410Z,8.43
2024-02-03T23:54:10.039Z,10.50
2024-02-03T23:56:40.208Z,8.45
2024-02-03T23:59:10.058Z,9.93
